sensor_id;sensor_type;location;lat;lon;timestamp;P1;durP1;ratioP1;P2;durP2;ratioP2
67941;SDS011;54731;42.600;23.476;2023-01-10T00:00:28;20.30;;;7.95;;
67941;SDS011;54731;42.600;23.476;2023-01-10T00:02:55;20.42;;;8.35;;
67941;SDS011;54731;42.600;23.476;2023-01-10T00:05:20;20.42;;;8.40;;
67941;SDS011;54731;42.600;23.476;2023-01-10T00:07:46;16.92;;;7.22;;
67941;SDS011;54731;42.600;23.476;2023-01-10T00:10:11;16.17;;;7.83;;
67941;SDS011;54731;42.600;23.476;2023-01-10T00:12:37;20.27;;;8.47;;
67941;SDS011;54731;42.600;23.476;2023-01-10T00:15:02;16.52;;;8.65;;
67941;SDS011;54731;42.600;23.476;2023-01-10T00:17:28;28.07;;;9.97;;
67941;SDS011;54731;42.600;23.476;2023-01-10T00:19:54;22.85;;;9.13;;
67941;SDS011;54731;42.600;23.476;2023-01-10T00:22:20;17.27;;;8.57;;
67941;SDS011;54731;42.600;23.476;2023-01-10T00:24:45;19.57;;;8.73;;
67941;SDS011;54731;42.600;23.476;2023-01-10T00:27:11;18.05;;;7.90;;
67941;SDS011;54731;42.600;23.476;2023-01-10T00:29:36;17.70;;;8.20;;
67941;SDS011;54731;42.600;23.476;2023-01-10T00:32:01;19.97;;;9.07;;
67941;SDS011;54731;42.600;23.476;2023-01-10T00:34:27;19.17;;;8.30;;
67941;SDS011;54731;42.600;23.476;2023-01-10T00:36:52;21.85;;;9.70;;
67941;SDS011;54731;42.600;23.476;2023-01-10T00:39:18;18.73;;;9.07;;
67941;SDS011;54731;42.600;23.476;2023-01-10T00:41:43;14.37;;;6.50;;
67941;SDS011;54731;42.600;23.476;2023-01-10T00:44:09;17.80;;;8.00;;
67941;SDS011;54731;42.600;23.476;2023-01-10T00:46:35;19.50;;;8.27;;
67941;SDS011;54731;42.600;23.476;2023-01-10T00:49:00;14.43;;;7.70;;
67941;SDS011;54731;42.600;23.476;2023-01-10T00:51:31;19.70;;;8.27;;
67941;SDS011;54731;42.600;23.476;2023-01-10T00:54:03;20.67;;;9.50;;
67941;SDS011;54731;42.600;23.476;2023-01-10T00:56:28;21.23;;;9.13;;
67941;SDS011;54731;42.600;23.476;2023-01-10T00:58:54;19.00;;;8.70;;
67941;SDS011;54731;42.600;23.476;2023-01-10T01:01:19;18.60;;;8.00;;
67941;SDS011;54731;42.600;23.476;2023-01-10T01:03:45;18.93;;;7.97;;
67941;SDS011;54731;42.600;23.476;2023-01-10T01:06:10;14.50;;;6.82;;
67941;SDS011;54731;42.600;23.476;2023-01-10T01:08:36;22.33;;;9.60;;
67941;SDS011;54731;42.600;23.476;2023-01-10T01:11:01;19.27;;;8.30;;
67941;SDS011;54731;42.600;23.476;2023-01-10T01:13:27;16.93;;;7.97;;
67941;SDS011;54731;42.600;23.476;2023-01-10T01:15:52;14.23;;;6.70;;
67941;SDS011;54731;42.600;23.476;2023-01-10T01:18:21;18.30;;;7.87;;
67941;SDS011;54731;42.600;23.476;2023-01-10T01:20:47;18.55;;;7.50;;
67941;SDS011;54731;42.600;23.476;2023-01-10T01:23:17;16.67;;;7.70;;
67941;SDS011;54731;42.600;23.476;2023-01-10T01:25:43;16.33;;;7.05;;
67941;SDS011;54731;42.600;23.476;2023-01-10T01:28:10;17.37;;;7.93;;
67941;SDS011;54731;42.600;23.476;2023-01-10T01:30:36;16.15;;;7.53;;
67941;SDS011;54731;42.600;23.476;2023-01-10T01:33:02;19.40;;;9.03;;
67941;SDS011;54731;42.600;23.476;2023-01-10T01:35:27;17.90;;;8.73;;
67941;SDS011;54731;42.600;23.476;2023-01-10T01:37:53;19.40;;;7.97;;
67941;SDS011;54731;42.600;23.476;2023-01-10T01:40:19;19.55;;;9.15;;
67941;SDS011;54731;42.600;23.476;2023-01-10T01:42:46;20.93;;;8.20;;
67941;SDS011;54731;42.600;23.476;2023-01-10T01:50:16;20.45;;;9.30;;
67941;SDS011;54731;42.600;23.476;2023-01-10T01:52:45;21.33;;;9.15;;
67941;SDS011;54731;42.600;23.476;2023-01-10T01:55:15;22.27;;;8.50;;
67941;SDS011;54731;42.600;23.476;2023-01-10T01:57:41;24.27;;;9.52;;
67941;SDS011;54731;42.600;23.476;2023-01-10T02:00:09;23.73;;;10.40;;
67941;SDS011;54731;42.600;23.476;2023-01-10T02:02:45;22.13;;;9.35;;
67941;SDS011;54731;42.600;23.476;2023-01-10T02:05:15;20.92;;;9.18;;
67941;SDS011;54731;42.600;23.476;2023-01-10T02:07:44;19.13;;;9.03;;
67941;SDS011;54731;42.600;23.476;2023-01-10T02:10:16;22.00;;;10.80;;
67941;SDS011;54731;42.600;23.476;2023-01-10T02:12:48;19.42;;;8.60;;
67941;SDS011;54731;42.600;23.476;2023-01-10T02:15:15;20.58;;;10.00;;
67941;SDS011;54731;42.600;23.476;2023-01-10T02:17:42;21.20;;;9.20;;
67941;SDS011;54731;42.600;23.476;2023-01-10T02:20:09;15.50;;;7.67;;
67941;SDS011;54731;42.600;23.476;2023-01-10T02:36:37;18.15;;;7.20;;
67941;SDS011;54731;42.600;23.476;2023-01-10T02:46:58;15.40;;;6.90;;
67941;SDS011;54731;42.600;23.476;2023-01-10T02:49:27;18.17;;;8.02;;
67941;SDS011;54731;42.600;23.476;2023-01-10T02:51:52;18.87;;;8.80;;
67941;SDS011;54731;42.600;23.476;2023-01-10T02:54:20;16.83;;;7.40;;
67941;SDS011;54731;42.600;23.476;2023-01-10T03:02:48;19.38;;;9.75;;
67941;SDS011;54731;42.600;23.476;2023-01-10T03:08:25;19.85;;;9.27;;
67941;SDS011;54731;42.600;23.476;2023-01-10T03:11:10;18.08;;;8.45;;
67941;SDS011;54731;42.600;23.476;2023-01-10T03:16:07;15.13;;;8.50;;
67941;SDS011;54731;42.600;23.476;2023-01-10T03:18:53;25.63;;;11.02;;
67941;SDS011;54731;42.600;23.476;2023-01-10T03:21:22;16.70;;;8.68;;
67941;SDS011;54731;42.600;23.476;2023-01-10T03:23:51;20.58;;;8.40;;
67941;SDS011;54731;42.600;23.476;2023-01-10T03:26:21;22.33;;;9.17;;
67941;SDS011;54731;42.600;23.476;2023-01-10T03:29:00;18.90;;;8.55;;
67941;SDS011;54731;42.600;23.476;2023-01-10T03:31:31;22.00;;;9.57;;
67941;SDS011;54731;42.600;23.476;2023-01-10T03:34:01;25.65;;;10.50;;
67941;SDS011;54731;42.600;23.476;2023-01-10T03:36:36;20.83;;;9.40;;
67941;SDS011;54731;42.600;23.476;2023-01-10T03:41:43;21.05;;;9.68;;
67941;SDS011;54731;42.600;23.476;2023-01-10T03:44:32;24.20;;;10.77;;
67941;SDS011;54731;42.600;23.476;2023-01-10T03:47:04;23.25;;;9.82;;
67941;SDS011;54731;42.600;23.476;2023-01-10T03:49:53;24.48;;;9.55;;
67941;SDS011;54731;42.600;23.476;2023-01-10T03:52:22;21.27;;;9.50;;
67941;SDS011;54731;42.600;23.476;2023-01-10T03:54:49;21.52;;;9.73;;
67941;SDS011;54731;42.600;23.476;2023-01-10T03:57:19;20.90;;;9.75;;
67941;SDS011;54731;42.600;23.476;2023-01-10T03:59:47;19.38;;;9.02;;
67941;SDS011;54731;42.600;23.476;2023-01-10T04:02:16;18.63;;;9.60;;
67941;SDS011;54731;42.600;23.476;2023-01-10T04:04:42;21.55;;;9.85;;
67941;SDS011;54731;42.600;23.476;2023-01-10T04:07:07;19.30;;;9.30;;
67941;SDS011;54731;42.600;23.476;2023-01-10T04:09:33;22.47;;;9.63;;
67941;SDS011;54731;42.600;23.476;2023-01-10T04:11:58;24.33;;;11.93;;
67941;SDS011;54731;42.600;23.476;2023-01-10T04:14:24;23.60;;;12.45;;
67941;SDS011;54731;42.600;23.476;2023-01-10T04:16:49;26.37;;;11.37;;
67941;SDS011;54731;42.600;23.476;2023-01-10T04:19:15;19.80;;;9.00;;
67941;SDS011;54731;42.600;23.476;2023-01-10T04:21:40;22.50;;;10.27;;
67941;SDS011;54731;42.600;23.476;2023-01-10T04:24:06;22.98;;;10.80;;
67941;SDS011;54731;42.600;23.476;2023-01-10T04:26:31;19.93;;;8.87;;
67941;SDS011;54731;42.600;23.476;2023-01-10T04:28:57;13.57;;;7.57;;
67941;SDS011;54731;42.600;23.476;2023-01-10T04:31:22;16.13;;;8.70;;
67941;SDS011;54731;42.600;23.476;2023-01-10T04:33:48;13.50;;;7.17;;
67941;SDS011;54731;42.600;23.476;2023-01-10T04:36:13;10.17;;;5.50;;
67941;SDS011;54731;42.600;23.476;2023-01-10T04:38:39;15.50;;;8.45;;
67941;SDS011;54731;42.600;23.476;2023-01-10T04:41:04;17.53;;;8.40;;
67941;SDS011;54731;42.600;23.476;2023-01-10T04:43:30;22.73;;;10.23;;
67941;SDS011;54731;42.600;23.476;2023-01-10T04:45:55;23.65;;;11.98;;
67941;SDS011;54731;42.600;23.476;2023-01-10T04:48:21;18.40;;;8.65;;
67941;SDS011;54731;42.600;23.476;2023-01-10T04:50:50;17.67;;;8.07;;
67941;SDS011;54731;42.600;23.476;2023-01-10T04:53:16;15.30;;;7.75;;
67941;SDS011;54731;42.600;23.476;2023-01-10T04:55:42;21.50;;;9.43;;
67941;SDS011;54731;42.600;23.476;2023-01-10T04:58:07;17.63;;;8.57;;
67941;SDS011;54731;42.600;23.476;2023-01-10T05:00:33;19.83;;;8.50;;
67941;SDS011;54731;42.600;23.476;2023-01-10T05:02:58;15.85;;;7.85;;
67941;SDS011;54731;42.600;23.476;2023-01-10T05:05:24;17.85;;;8.10;;
67941;SDS011;54731;42.600;23.476;2023-01-10T05:07:50;24.33;;;11.43;;
67941;SDS011;54731;42.600;23.476;2023-01-10T05:10:15;20.30;;;9.13;;
67941;SDS011;54731;42.600;23.476;2023-01-10T05:12:41;18.88;;;9.30;;
67941;SDS011;54731;42.600;23.476;2023-01-10T05:15:06;18.43;;;9.27;;
67941;SDS011;54731;42.600;23.476;2023-01-10T05:17:32;20.15;;;8.82;;
67941;SDS011;54731;42.600;23.476;2023-01-10T05:19:58;17.07;;;8.00;;
67941;SDS011;54731;42.600;23.476;2023-01-10T05:22:23;19.60;;;9.50;;
67941;SDS011;54731;42.600;23.476;2023-01-10T05:24:49;19.35;;;9.18;;
67941;SDS011;54731;42.600;23.476;2023-01-10T05:27:14;19.17;;;10.02;;
67941;SDS011;54731;42.600;23.476;2023-01-10T05:29:40;21.50;;;9.55;;
67941;SDS011;54731;42.600;23.476;2023-01-10T05:32:06;16.47;;;8.50;;
67941;SDS011;54731;42.600;23.476;2023-01-10T05:34:31;21.93;;;10.87;;
67941;SDS011;54731;42.600;23.476;2023-01-10T05:36:57;20.30;;;10.18;;
67941;SDS011;54731;42.600;23.476;2023-01-10T05:39:22;19.60;;;10.50;;
67941;SDS011;54731;42.600;23.476;2023-01-10T05:41:48;18.63;;;9.10;;
67941;SDS011;54731;42.600;23.476;2023-01-10T05:44:13;24.55;;;11.77;;
67941;SDS011;54731;42.600;23.476;2023-01-10T05:46:39;22.75;;;10.27;;
67941;SDS011;54731;42.600;23.476;2023-01-10T05:49:04;19.63;;;10.03;;
67941;SDS011;54731;42.600;23.476;2023-01-10T05:51:30;28.90;;;11.83;;
67941;SDS011;54731;42.600;23.476;2023-01-10T05:53:55;45.20;;;14.98;;
67941;SDS011;54731;42.600;23.476;2023-01-10T05:56:21;31.80;;;12.98;;
67941;SDS011;54731;42.600;23.476;2023-01-10T05:58:46;26.90;;;11.60;;
67941;SDS011;54731;42.600;23.476;2023-01-10T06:01:12;27.20;;;11.73;;
67941;SDS011;54731;42.600;23.476;2023-01-10T06:03:37;23.37;;;10.40;;
67941;SDS011;54731;42.600;23.476;2023-01-10T06:06:03;26.88;;;13.13;;
67941;SDS011;54731;42.600;23.476;2023-01-10T06:08:31;31.90;;;15.63;;
67941;SDS011;54731;42.600;23.476;2023-01-10T06:10:56;34.90;;;16.50;;
67941;SDS011;54731;42.600;23.476;2023-01-10T06:13:22;25.13;;;11.13;;
67941;SDS011;54731;42.600;23.476;2023-01-10T06:15:48;23.20;;;11.43;;
67941;SDS011;54731;42.600;23.476;2023-01-10T06:18:16;74.57;;;25.67;;
67941;SDS011;54731;42.600;23.476;2023-01-10T06:20:42;40.60;;;21.48;;
67941;SDS011;54731;42.600;23.476;2023-01-10T06:23:08;26.38;;;14.88;;
67941;SDS011;54731;42.600;23.476;2023-01-10T06:25:34;201.47;;;46.47;;
67941;SDS011;54731;42.600;23.476;2023-01-10T06:28:01;85.75;;;28.35;;
67941;SDS011;54731;42.600;23.476;2023-01-10T06:30:27;52.47;;;23.13;;
67941;SDS011;54731;42.600;23.476;2023-01-10T06:32:52;32.53;;;15.20;;
67941;SDS011;54731;42.600;23.476;2023-01-10T06:35:18;39.17;;;20.27;;
67941;SDS011;54731;42.600;23.476;2023-01-10T06:37:44;40.88;;;20.80;;
67941;SDS011;54731;42.600;23.476;2023-01-10T06:40:10;44.07;;;21.53;;
67941;SDS011;54731;42.600;23.476;2023-01-10T06:42:36;58.30;;;23.88;;
67941;SDS011;54731;42.600;23.476;2023-01-10T06:45:01;55.47;;;25.13;;
67941;SDS011;54731;42.600;23.476;2023-01-10T06:47:27;94.88;;;43.80;;
67941;SDS011;54731;42.600;23.476;2023-01-10T06:49:58;52.75;;;23.75;;
67941;SDS011;54731;42.600;23.476;2023-01-10T06:52:24;119.73;;;40.00;;
67941;SDS011;54731;42.600;23.476;2023-01-10T06:54:49;90.30;;;33.93;;
67941;SDS011;54731;42.600;23.476;2023-01-10T06:57:15;140.95;;;46.30;;
67941;SDS011;54731;42.600;23.476;2023-01-10T06:59:40;87.53;;;36.20;;
67941;SDS011;54731;42.600;23.476;2023-01-10T07:02:05;60.73;;;27.43;;
67941;SDS011;54731;42.600;23.476;2023-01-10T07:04:31;133.90;;;48.43;;
67941;SDS011;54731;42.600;23.476;2023-01-10T07:06:56;71.73;;;29.37;;
67941;SDS011;54731;42.600;23.476;2023-01-10T07:09:21;31.93;;;15.50;;
67941;SDS011;54731;42.600;23.476;2023-01-10T07:11:47;38.73;;;19.73;;
67941;SDS011;54731;42.600;23.476;2023-01-10T07:14:12;36.83;;;19.40;;
67941;SDS011;54731;42.600;23.476;2023-01-10T07:16:37;39.47;;;19.20;;
67941;SDS011;54731;42.600;23.476;2023-01-10T07:19:02;22.63;;;10.13;;
67941;SDS011;54731;42.600;23.476;2023-01-10T07:21:28;22.50;;;11.10;;
67941;SDS011;54731;42.600;23.476;2023-01-10T07:23:53;26.37;;;14.17;;
67941;SDS011;54731;42.600;23.476;2023-01-10T07:26:18;20.77;;;9.90;;
67941;SDS011;54731;42.600;23.476;2023-01-10T07:28:47;27.47;;;12.70;;
67941;SDS011;54731;42.600;23.476;2023-01-10T07:31:13;29.52;;;13.68;;
67941;SDS011;54731;42.600;23.476;2023-01-10T07:33:39;24.63;;;10.37;;
67941;SDS011;54731;42.600;23.476;2023-01-10T07:36:05;20.20;;;10.07;;
67941;SDS011;54731;42.600;23.476;2023-01-10T07:38:30;41.80;;;20.52;;
67941;SDS011;54731;42.600;23.476;2023-01-10T07:40:55;20.33;;;8.80;;
67941;SDS011;54731;42.600;23.476;2023-01-10T07:43:21;36.57;;;20.57;;
67941;SDS011;54731;42.600;23.476;2023-01-10T07:45:46;28.87;;;16.13;;
67941;SDS011;54731;42.600;23.476;2023-01-10T07:48:11;19.00;;;10.00;;
67941;SDS011;54731;42.600;23.476;2023-01-10T07:50:37;15.03;;;8.13;;
67941;SDS011;54731;42.600;23.476;2023-01-10T07:53:03;12.83;;;6.60;;
67941;SDS011;54731;42.600;23.476;2023-01-10T07:55:30;17.58;;;8.60;;
67941;SDS011;54731;42.600;23.476;2023-01-10T07:57:56;14.30;;;6.83;;
67941;SDS011;54731;42.600;23.476;2023-01-10T08:00:21;13.88;;;7.10;;
67941;SDS011;54731;42.600;23.476;2023-01-10T08:02:47;23.87;;;10.80;;
67941;SDS011;54731;42.600;23.476;2023-01-10T08:05:16;12.93;;;7.65;;
67941;SDS011;54731;42.600;23.476;2023-01-10T08:07:41;19.37;;;11.83;;
67941;SDS011;54731;42.600;23.476;2023-01-10T08:10:07;26.20;;;14.90;;
67941;SDS011;54731;42.600;23.476;2023-01-10T08:12:32;39.13;;;23.23;;
67941;SDS011;54731;42.600;23.476;2023-01-10T08:14:58;32.63;;;20.75;;
67941;SDS011;54731;42.600;23.476;2023-01-10T08:17:23;14.07;;;7.63;;
67941;SDS011;54731;42.600;23.476;2023-01-10T08:19:49;17.23;;;7.70;;
67941;SDS011;54731;42.600;23.476;2023-01-10T08:22:15;12.23;;;6.68;;
67941;SDS011;54731;42.600;23.476;2023-01-10T08:24:40;11.93;;;6.40;;
67941;SDS011;54731;42.600;23.476;2023-01-10T08:27:05;10.13;;;5.77;;
67941;SDS011;54731;42.600;23.476;2023-01-10T08:29:31;17.90;;;9.00;;
67941;SDS011;54731;42.600;23.476;2023-01-10T08:31:56;16.30;;;9.80;;
67941;SDS011;54731;42.600;23.476;2023-01-10T08:34:21;16.03;;;9.97;;
67941;SDS011;54731;42.600;23.476;2023-01-10T08:36:50;11.07;;;5.60;;
67941;SDS011;54731;42.600;23.476;2023-01-10T08:39:16;13.97;;;7.20;;
67941;SDS011;54731;42.600;23.476;2023-01-10T08:41:42;9.60;;;5.90;;
67941;SDS011;54731;42.600;23.476;2023-01-10T08:44:07;9.33;;;5.80;;
67941;SDS011;54731;42.600;23.476;2023-01-10T08:46:32;8.17;;;5.63;;
67941;SDS011;54731;42.600;23.476;2023-01-10T08:48:58;8.70;;;5.00;;
67941;SDS011;54731;42.600;23.476;2023-01-10T08:51:23;7.70;;;5.27;;
67941;SDS011;54731;42.600;23.476;2023-01-10T08:53:48;13.23;;;7.23;;
67941;SDS011;54731;42.600;23.476;2023-01-10T08:56:14;13.60;;;8.07;;
67941;SDS011;54731;42.600;23.476;2023-01-10T08:58:39;12.27;;;6.93;;
67941;SDS011;54731;42.600;23.476;2023-01-10T09:01:05;9.60;;;6.07;;
67941;SDS011;54731;42.600;23.476;2023-01-10T09:03:32;9.75;;;6.40;;
67941;SDS011;54731;42.600;23.476;2023-01-10T09:05:58;9.38;;;5.57;;
67941;SDS011;54731;42.600;23.476;2023-01-10T09:08:24;10.40;;;5.70;;
67941;SDS011;54731;42.600;23.476;2023-01-10T09:10:49;10.93;;;6.10;;
67941;SDS011;54731;42.600;23.476;2023-01-10T09:13:15;8.27;;;5.10;;
67941;SDS011;54731;42.600;23.476;2023-01-10T09:15:40;10.70;;;6.50;;
67941;SDS011;54731;42.600;23.476;2023-01-10T09:18:06;9.98;;;6.60;;
67941;SDS011;54731;42.600;23.476;2023-01-10T09:20:32;32.73;;;20.10;;
67941;SDS011;54731;42.600;23.476;2023-01-10T09:23:03;82.20;;;16.60;;
67941;SDS011;54731;42.600;23.476;2023-01-10T09:25:38;46.17;;;18.80;;
67941;SDS011;54731;42.600;23.476;2023-01-10T09:28:04;155.67;;;22.07;;
67941;SDS011;54731;42.600;23.476;2023-01-10T09:30:30;61.53;;;23.10;;
67941;SDS011;54731;42.600;23.476;2023-01-10T09:32:56;145.65;;;21.00;;
67941;SDS011;54731;42.600;23.476;2023-01-10T09:35:23;361.60;;;26.33;;
67941;SDS011;54731;42.600;23.476;2023-01-10T09:37:49;425.08;;;28.67;;
67941;SDS011;54731;42.600;23.476;2023-01-10T09:40:23;249.77;;;24.17;;
67941;SDS011;54731;42.600;23.476;2023-01-10T09:43:14;82.90;;;20.75;;
67941;SDS011;54731;42.600;23.476;2023-01-10T09:45:49;121.03;;;30.92;;
67941;SDS011;54731;42.600;23.476;2023-01-10T09:53:49;43.53;;;22.17;;
67941;SDS011;54731;42.600;23.476;2023-01-10T09:56:19;78.65;;;33.13;;
67941;SDS011;54731;42.600;23.476;2023-01-10T09:58:44;64.38;;;29.85;;
67941;SDS011;54731;42.600;23.476;2023-01-10T10:01:22;110.00;;;27.35;;
67941;SDS011;54731;42.600;23.476;2023-01-10T10:06:31;105.82;;;23.75;;
67941;SDS011;54731;42.600;23.476;2023-01-10T10:08:56;53.25;;;24.33;;
67941;SDS011;54731;42.600;23.476;2023-01-10T10:36:56;74.95;;;35.28;;
67941;SDS011;54731;42.600;23.476;2023-01-10T10:39:35;85.32;;;38.03;;
67941;SDS011;54731;42.600;23.476;2023-01-10T10:42:09;49.97;;;23.53;;
67941;SDS011;54731;42.600;23.476;2023-01-10T10:44:51;68.80;;;30.60;;
67941;SDS011;54731;42.600;23.476;2023-01-10T10:47:22;59.83;;;29.92;;
67941;SDS011;54731;42.600;23.476;2023-01-10T10:52:43;52.00;;;27.58;;
67941;SDS011;54731;42.600;23.476;2023-01-10T10:55:16;43.53;;;23.67;;
67941;SDS011;54731;42.600;23.476;2023-01-10T10:57:45;64.97;;;34.75;;
67941;SDS011;54731;42.600;23.476;2023-01-10T11:00:15;67.18;;;35.67;;
67941;SDS011;54731;42.600;23.476;2023-01-10T11:02:47;56.45;;;31.20;;
67941;SDS011;54731;42.600;23.476;2023-01-10T11:05:19;47.97;;;27.55;;
67941;SDS011;54731;42.600;23.476;2023-01-10T11:07:47;64.93;;;36.27;;
67941;SDS011;54731;42.600;23.476;2023-01-10T11:10:23;68.18;;;37.33;;
67941;SDS011;54731;42.600;23.476;2023-01-10T11:12:49;78.90;;;42.50;;
67941;SDS011;54731;42.600;23.476;2023-01-10T11:15:58;98.28;;;52.25;;
67941;SDS011;54731;42.600;23.476;2023-01-10T11:18:09;88.80;;;48.30;;
67941;SDS011;54731;42.600;23.476;2023-01-10T11:20:44;113.07;;;49.57;;
67941;SDS011;54731;42.600;23.476;2023-01-10T11:23:12;165.32;;;46.03;;
67941;SDS011;54731;42.600;23.476;2023-01-10T11:25:46;128.75;;;39.53;;
67941;SDS011;54731;42.600;23.476;2023-01-10T11:28:11;208.13;;;35.30;;
67941;SDS011;54731;42.600;23.476;2023-01-10T11:30:39;272.27;;;34.80;;
67941;SDS011;54731;42.600;23.476;2023-01-10T11:33:06;172.40;;;32.13;;
67941;SDS011;54731;42.600;23.476;2023-01-10T11:35:33;78.88;;;32.22;;
67941;SDS011;54731;42.600;23.476;2023-01-10T11:38:21;219.23;;;40.47;;
67941;SDS011;54731;42.600;23.476;2023-01-10T11:40:53;89.00;;;36.23;;
67941;SDS011;54731;42.600;23.476;2023-01-10T11:43:28;91.25;;;36.85;;
67941;SDS011;54731;42.600;23.476;2023-01-10T11:46:04;215.45;;;33.30;;
67941;SDS011;54731;42.600;23.476;2023-01-10T11:48:42;82.78;;;32.83;;
67941;SDS011;54731;42.600;23.476;2023-01-10T11:51:18;74.72;;;33.60;;
67941;SDS011;54731;42.600;23.476;2023-01-10T11:53:48;138.53;;;30.80;;
67941;SDS011;54731;42.600;23.476;2023-01-10T11:56:24;175.70;;;33.00;;
67941;SDS011;54731;42.600;23.476;2023-01-10T11:58:53;301.70;;;36.90;;
67941;SDS011;54731;42.600;23.476;2023-01-10T12:04:19;124.23;;;31.63;;
67941;SDS011;54731;42.600;23.476;2023-01-10T12:06:46;123.95;;;38.35;;
67941;SDS011;54731;42.600;23.476;2023-01-10T12:09:36;124.57;;;33.42;;
67941;SDS011;54731;42.600;23.476;2023-01-10T12:12:05;139.60;;;37.20;;
67941;SDS011;54731;42.600;23.476;2023-01-10T12:14:41;68.82;;;29.67;;
67941;SDS011;54731;42.600;23.476;2023-01-10T12:17:09;66.10;;;28.23;;
67941;SDS011;54731;42.600;23.476;2023-01-10T12:19:41;72.63;;;27.95;;
67941;SDS011;54731;42.600;23.476;2023-01-10T12:22:06;50.43;;;26.47;;
67941;SDS011;54731;42.600;23.476;2023-01-10T12:24:35;47.47;;;23.95;;
67941;SDS011;54731;42.600;23.476;2023-01-10T12:27:06;43.00;;;22.75;;
67941;SDS011;54731;42.600;23.476;2023-01-10T12:29:39;45.13;;;23.90;;
67941;SDS011;54731;42.600;23.476;2023-01-10T12:32:12;68.80;;;30.95;;
67941;SDS011;54731;42.600;23.476;2023-01-10T12:34:44;220.52;;;35.63;;
67941;SDS011;54731;42.600;23.476;2023-01-10T12:37:18;302.03;;;39.97;;
67941;SDS011;54731;42.600;23.476;2023-01-10T12:40:24;218.35;;;33.10;;
67941;SDS011;54731;42.600;23.476;2023-01-10T12:42:53;165.90;;;27.80;;
67941;SDS011;54731;42.600;23.476;2023-01-10T12:45:25;182.20;;;32.35;;
67941;SDS011;54731;42.600;23.476;2023-01-10T12:47:55;225.40;;;38.40;;
67941;SDS011;54731;42.600;23.476;2023-01-10T12:53:10;228.75;;;38.50;;
67941;SDS011;54731;42.600;23.476;2023-01-10T12:55:43;68.95;;;25.55;;
67941;SDS011;54731;42.600;23.476;2023-01-10T12:58:33;101.03;;;37.33;;
67941;SDS011;54731;42.600;23.476;2023-01-10T13:01:15;65.80;;;31.15;;
67941;SDS011;54731;42.600;23.476;2023-01-10T13:03:44;78.47;;;33.27;;
67941;SDS011;54731;42.600;23.476;2023-01-10T13:06:21;84.00;;;34.35;;
67941;SDS011;54731;42.600;23.476;2023-01-10T13:08:53;76.63;;;35.13;;
67941;SDS011;54731;42.600;23.476;2023-01-10T13:11:18;61.75;;;30.05;;
67941;SDS011;54731;42.600;23.476;2023-01-10T13:13:48;47.33;;;26.33;;
67941;SDS011;54731;42.600;23.476;2023-01-10T13:21:46;40.28;;;20.10;;
67941;SDS011;54731;42.600;23.476;2023-01-10T13:26:50;37.55;;;21.60;;
67941;SDS011;54731;42.600;23.476;2023-01-10T13:29:18;42.38;;;26.25;;
67941;SDS011;54731;42.600;23.476;2023-01-10T13:31:46;42.30;;;25.50;;
67941;SDS011;54731;42.600;23.476;2023-01-10T13:34:12;33.70;;;20.27;;
67941;SDS011;54731;42.600;23.476;2023-01-10T13:37:02;42.03;;;22.48;;
67941;SDS011;54731;42.600;23.476;2023-01-10T13:39:35;64.00;;;24.50;;
67941;SDS011;54731;42.600;23.476;2023-01-10T13:44:28;47.03;;;22.97;;
67941;SDS011;54731;42.600;23.476;2023-01-10T13:46:53;27.33;;;14.57;;
67941;SDS011;54731;42.600;23.476;2023-01-10T13:49:26;42.43;;;20.63;;
67941;SDS011;54731;42.600;23.476;2023-01-10T13:52:26;49.72;;;22.38;;
67941;SDS011;54731;42.600;23.476;2023-01-10T13:54:57;34.27;;;15.90;;
67941;SDS011;54731;42.600;23.476;2023-01-10T14:00:42;40.95;;;19.67;;
67941;SDS011;54731;42.600;23.476;2023-01-10T14:06:05;32.22;;;15.80;;
67941;SDS011;54731;42.600;23.476;2023-01-10T14:08:54;41.87;;;16.47;;
67941;SDS011;54731;42.600;23.476;2023-01-10T14:11:22;50.53;;;20.40;;
67941;SDS011;54731;42.600;23.476;2023-01-10T14:13:57;42.40;;;17.90;;
67941;SDS011;54731;42.600;23.476;2023-01-10T14:16:43;47.95;;;20.15;;
67941;SDS011;54731;42.600;23.476;2023-01-10T14:19:21;39.85;;;17.17;;
67941;SDS011;54731;42.600;23.476;2023-01-10T14:21:55;36.03;;;15.87;;
67941;SDS011;54731;42.600;23.476;2023-01-10T14:24:27;37.70;;;16.77;;
67941;SDS011;54731;42.600;23.476;2023-01-10T14:26:53;33.38;;;17.38;;
67941;SDS011;54731;42.600;23.476;2023-01-10T14:29:20;36.95;;;17.88;;
67941;SDS011;54731;42.600;23.476;2023-01-10T14:31:45;28.27;;;14.43;;
67941;SDS011;54731;42.600;23.476;2023-01-10T14:34:23;56.50;;;23.08;;
67941;SDS011;54731;42.600;23.476;2023-01-10T14:36:57;45.30;;;18.25;;
67941;SDS011;54731;42.600;23.476;2023-01-10T14:39:26;24.13;;;13.30;;
67941;SDS011;54731;42.600;23.476;2023-01-10T14:41:53;58.25;;;21.35;;
67941;SDS011;54731;42.600;23.476;2023-01-10T14:44:36;56.53;;;23.20;;
67941;SDS011;54731;42.600;23.476;2023-01-10T14:47:23;28.50;;;13.98;;
67941;SDS011;54731;42.600;23.476;2023-01-10T14:49:54;25.58;;;13.90;;
67941;SDS011;54731;42.600;23.476;2023-01-10T14:52:21;35.50;;;16.70;;
67941;SDS011;54731;42.600;23.476;2023-01-10T14:55:01;36.42;;;17.27;;
67941;SDS011;54731;42.600;23.476;2023-01-10T14:57:26;29.55;;;15.38;;
67941;SDS011;54731;42.600;23.476;2023-01-10T15:00:00;49.17;;;25.57;;
67941;SDS011;54731;42.600;23.476;2023-01-10T15:02:46;73.90;;;33.50;;
67941;SDS011;54731;42.600;23.476;2023-01-10T15:05:25;37.55;;;20.25;;
67941;SDS011;54731;42.600;23.476;2023-01-10T15:07:52;76.68;;;36.88;;
67941;SDS011;54731;42.600;23.476;2023-01-10T15:12:43;37.65;;;20.45;;
67941;SDS011;54731;42.600;23.476;2023-01-10T15:15:14;21.20;;;13.40;;
67941;SDS011;54731;42.600;23.476;2023-01-10T15:17:45;11.88;;;7.53;;
67941;SDS011;54731;42.600;23.476;2023-01-10T15:20:15;36.90;;;15.63;;
67941;SDS011;54731;42.600;23.476;2023-01-10T15:22:42;10.73;;;6.38;;
67941;SDS011;54731;42.600;23.476;2023-01-10T15:27:46;10.17;;;5.93;;
67941;SDS011;54731;42.600;23.476;2023-01-10T15:30:20;20.33;;;10.55;;
67941;SDS011;54731;42.600;23.476;2023-01-10T15:32:51;14.30;;;8.73;;
67941;SDS011;54731;42.600;23.476;2023-01-10T15:35:18;14.88;;;7.38;;
67941;SDS011;54731;42.600;23.476;2023-01-10T15:37:49;32.95;;;13.70;;
67941;SDS011;54731;42.600;23.476;2023-01-10T15:40:23;36.33;;;15.10;;
67941;SDS011;54731;42.600;23.476;2023-01-10T15:43:09;29.38;;;13.10;;
67941;SDS011;54731;42.600;23.476;2023-01-10T15:45:40;8.55;;;4.80;;
67941;SDS011;54731;42.600;23.476;2023-01-10T15:48:21;19.75;;;9.55;;
67941;SDS011;54731;42.600;23.476;2023-01-10T15:50:55;35.33;;;15.90;;
67941;SDS011;54731;42.600;23.476;2023-01-10T15:53:21;37.38;;;17.67;;
67941;SDS011;54731;42.600;23.476;2023-01-10T15:59:35;70.35;;;26.02;;
67941;SDS011;54731;42.600;23.476;2023-01-10T16:04:45;51.37;;;20.60;;
67941;SDS011;54731;42.600;23.476;2023-01-10T16:07:14;22.33;;;10.23;;
67941;SDS011;54731;42.600;23.476;2023-01-10T16:09:58;34.17;;;16.30;;
67941;SDS011;54731;42.600;23.476;2023-01-10T16:12:37;12.80;;;6.97;;
67941;SDS011;54731;42.600;23.476;2023-01-10T16:15:09;9.45;;;4.95;;